createdAt,value
2023-05-21T00:01:40.552Z,14.87
2023-05-21T00:04:08.797Z,14.92
2023-05-21T00:06:36.495Z,14.88
2023-05-21T00:09:04.867Z,14.85
2023-05-21T00:11:32.564Z,14.90
2023-05-21T00:14:00.037Z,14.88
2023-05-21T00:16:27.404Z,14.86
2023-05-21T00:18:55.419Z,14.88
2023-05-21T00:21:23.002Z,14.91
2023-05-21T00:23:50.433Z,14.93
2023-05-21T00:26:17.689Z,14.91
2023-05-21T00:28:46.058Z,14.95
2023-05-21T00:31:13.541Z,14.92
2023-05-21T00:33:41.141Z,14.95
2023-05-21T00:36:09.062Z,14.92
2023-05-21T00:38:38.108Z,14.95
2023-05-21T00:41:05.524Z,14.93
2023-05-21T00:43:33.278Z,14.92
2023-05-21T00:46:00.651Z,14.96
2023-05-21T00:48:28.095Z,14.94
2023-05-21T00:50:55.658Z,14.96
2023-05-21T00:53:23.117Z,14.90
2023-05-21T00:55:51.087Z,14.92
2023-05-21T00:58:18.796Z,14.94
2023-05-21T01:00:47.106Z,14.97
2023-05-21T01:03:14.848Z,14.98
2023-05-21T01:05:45.287Z,14.93
2023-05-21T01:08:13.015Z,14.96
2023-05-21T01:10:42.905Z,14.97
2023-05-21T01:13:10.385Z,14.98
2023-05-21T01:15:39.141Z,14.99
2023-05-21T01:18:07.847Z,14.98
2023-05-21T01:20:35.611Z,14.97
2023-05-21T01:23:03.435Z,15.00
2023-05-21T01:25:30.892Z,14.98
2023-05-21T01:27:58.403Z,14.96
2023-05-21T01:30:25.921Z,14.96
2023-05-21T01:33:04.230Z,14.97
2023-05-21T01:35:34.078Z,15.03
2023-05-21T01:38:22.961Z,15.05
2023-05-21T01:40:58.873Z,14.98
2023-05-21T01:43:28.115Z,14.99
2023-05-21T01:45:57.426Z,14.98
2023-05-21T01:48:26.641Z,14.93
2023-05-21T01:50:55.921Z,14.86
2023-05-21T01:53:23.593Z,14.82
2023-05-21T01:55:51.205Z,14.91
2023-05-21T01:58:19.158Z,14.91
2023-05-21T02:00:46.955Z,14.83
2023-05-21T02:03:17.311Z,14.82
2023-05-21T02:05:45.074Z,14.78
2023-05-21T02:08:13.103Z,14.77
2023-05-21T02:10:40.961Z,14.71
2023-05-21T02:13:08.593Z,14.76
2023-05-21T02:15:37.051Z,14.76
2023-05-21T02:18:05.008Z,14.76
2023-05-21T02:20:34.244Z,14.72
2023-05-21T02:23:01.716Z,14.74
2023-05-21T02:25:29.120Z,14.71
2023-05-21T02:27:56.943Z,14.70
2023-05-21T02:30:24.437Z,14.71
2023-05-21T02:32:51.919Z,14.67
2023-05-21T02:35:19.557Z,14.62
2023-05-21T02:37:47.019Z,14.62
2023-05-21T02:40:16.106Z,14.62
2023-05-21T02:42:43.563Z,14.63
2023-05-21T02:45:15.425Z,14.63
2023-05-21T02:47:44.412Z,14.58
2023-05-21T02:50:13.964Z,14.59
2023-05-21T02:52:49.196Z,14.64
2023-05-21T02:55:16.678Z,14.65
2023-05-21T02:57:44.086Z,14.62
2023-05-21T03:00:12.065Z,14.67
2023-05-21T03:02:41.202Z,14.63
2023-05-21T03:05:09.552Z,14.62
2023-05-21T03:07:36.998Z,14.61
2023-05-21T03:10:05.272Z,14.62
2023-05-21T03:12:32.647Z,14.64
2023-05-21T03:15:01.006Z,14.64
2023-05-21T03:17:30.145Z,14.62
2023-05-21T03:19:57.614Z,14.63
2023-05-21T03:22:25.138Z,14.60
2023-05-21T03:24:53.595Z,14.59
2023-05-21T03:27:22.706Z,14.61
2023-05-21T03:29:52.065Z,14.63
2023-05-21T03:32:19.650Z,14.60
2023-05-21T03:34:48.848Z,14.59
2023-05-21T03:37:18.341Z,14.62
2023-05-21T03:39:45.892Z,14.63
2023-05-21T03:42:14.319Z,14.66
2023-05-21T03:44:47.188Z,14.69
2023-05-21T03:47:42.039Z,14.65
2023-05-21T03:50:11.233Z,14.71
2023-05-21T03:52:39.441Z,14.71
2023-05-21T03:55:07.268Z,14.65
2023-05-21T03:57:34.767Z,14.68
2023-05-21T04:00:02.806Z,14.65
2023-05-21T04:02:32.178Z,14.59
2023-05-21T04:04:59.960Z,14.63
2023-05-21T04:07:27.493Z,14.65
2023-05-21T04:09:54.927Z,14.65
2023-05-21T04:12:22.650Z,14.64
2023-05-21T04:14:50.154Z,14.66
2023-05-21T04:17:19.350Z,14.66
2023-05-21T04:19:46.914Z,14.62
2023-05-21T04:22:14.632Z,14.66
2023-05-21T04:24:42.819Z,14.63
2023-05-21T04:27:23.866Z,14.63
2023-05-21T04:29:52.058Z,14.68
2023-05-21T04:32:19.407Z,14.68
2023-05-21T04:34:46.722Z,14.69
2023-05-21T04:37:14.627Z,14.67
2023-05-21T04:39:42.566Z,14.71
2023-05-21T04:42:12.730Z,14.68
2023-05-21T04:44:41.571Z,14.71
2023-05-21T04:47:10.622Z,14.76
2023-05-21T04:49:38.132Z,14.74
2023-05-21T04:52:05.944Z,14.79
2023-05-21T04:54:33.473Z,14.86
2023-05-21T04:57:01.537Z,14.85
2023-05-21T04:59:29.046Z,14.91
2023-05-21T05:01:56.330Z,14.94
2023-05-21T05:04:24.060Z,14.94
2023-05-21T05:06:52.545Z,14.98
2023-05-21T05:09:21.700Z,15.04
2023-05-21T05:11:49.212Z,15.07
2023-05-21T05:14:16.662Z,15.11
2023-05-21T05:16:48.228Z,15.23
2023-05-21T05:19:16.695Z,15.28
2023-05-21T05:21:44.779Z,15.28
2023-05-21T05:24:12.592Z,15.33
2023-05-21T05:26:40.313Z,15.37
2023-05-21T05:29:07.717Z,15.40
2023-05-21T05:31:35.259Z,15.47
2023-05-21T05:34:02.841Z,15.48
2023-05-21T05:36:30.408Z,15.51
2023-05-21T05:38:57.961Z,15.56
2023-05-21T05:41:26.770Z,15.62
2023-05-21T05:43:54.261Z,15.62
2023-05-21T05:46:23.022Z,15.65
2023-05-21T05:48:51.789Z,15.67
2023-05-21T05:51:19.224Z,15.67
2023-05-21T05:53:46.806Z,15.73
2023-05-21T05:56:14.477Z,15.70
2023-05-21T05:58:41.934Z,15.77
2023-05-21T06:01:12.158Z,15.80
2023-05-21T06:03:40.512Z,15.91
2023-05-21T06:06:18.881Z,15.92
2023-05-21T06:08:46.599Z,15.89
2023-05-21T06:11:17.225Z,15.93
2023-05-21T06:13:45.826Z,15.92
2023-05-21T06:16:15.803Z,15.89
2023-05-21T06:18:43.341Z,15.91
2023-05-21T06:21:10.874Z,15.95
2023-05-21T06:23:38.893Z,15.91
2023-05-21T06:26:06.481Z,15.89
2023-05-21T06:28:34.083Z,15.92
2023-05-21T06:31:02.091Z,15.99
2023-05-21T06:33:32.148Z,16.11
2023-05-21T06:35:59.821Z,16.12
2023-05-21T06:38:28.574Z,16.19
2023-05-21T06:40:56.126Z,16.26
2023-05-21T06:43:40.479Z,16.48
2023-05-21T06:46:31.475Z,16.64
2023-05-21T06:49:01.104Z,16.87
2023-05-21T06:51:28.507Z,17.12
2023-05-21T06:53:56.494Z,17.40
2023-05-21T06:56:24.146Z,17.43
2023-05-21T06:58:54.722Z,17.69
2023-05-21T07:01:22.997Z,17.92
2023-05-21T07:03:50.515Z,18.20
2023-05-21T07:06:18.792Z,18.45
2023-05-21T07:08:48.204Z,18.82
2023-05-21T07:11:15.809Z,19.14
2023-05-21T07:13:43.365Z,19.36
2023-05-21T07:16:11.072Z,19.71
2023-05-21T07:18:40.030Z,19.72
2023-05-21T07:21:07.435Z,20.11
2023-05-21T07:23:36.180Z,20.19
2023-05-21T07:26:03.637Z,20.41
2023-05-21T07:28:31.298Z,20.51
2023-05-21T07:30:58.872Z,20.72
2023-05-21T07:33:32.926Z,20.87
2023-05-21T07:36:00.392Z,20.80
2023-05-21T07:38:27.851Z,20.73
2023-05-21T07:40:55.660Z,20.71
2023-05-21T07:43:23.275Z,21.01
2023-05-21T07:45:51.758Z,21.32
2023-05-21T07:48:19.676Z,21.56
2023-05-21T07:50:53.665Z,21.96
2023-05-21T07:53:21.922Z,22.17
2023-05-21T07:55:50.353Z,22.40
2023-05-21T07:58:23.546Z,22.69
2023-05-21T08:00:51.207Z,22.89
2023-05-21T08:03:19.239Z,23.13
2023-05-21T08:05:51.055Z,23.18
2023-05-21T08:08:19.328Z,23.27
2023-05-21T08:10:50.360Z,23.29
2023-05-21T08:13:18.446Z,23.39
2023-05-21T08:15:49.088Z,23.51
2023-05-21T08:18:18.431Z,23.72
2023-05-21T08:20:48.487Z,23.87
2023-05-21T08:23:18.715Z,23.95
2023-05-21T08:25:50.646Z,23.77
2023-05-21T08:28:18.137Z,23.76
2023-05-21T08:30:46.373Z,23.66
2023-05-21T08:33:15.061Z,23.68
2023-05-21T08:35:42.719Z,23.54
2023-05-21T08:38:36.653Z,23.57
2023-05-21T08:41:13.424Z,23.58
2023-05-21T08:43:41.198Z,23.68
2023-05-21T08:46:09.902Z,23.82
2023-05-21T08:48:40.924Z,24.05
2023-05-21T08:51:08.484Z,24.41
2023-05-21T08:53:42.393Z,24.51
2023-05-21T08:56:13.229Z,24.53
2023-05-21T08:58:49.022Z,24.46
2023-05-21T09:01:19.972Z,24.49
2023-05-21T09:03:52.892Z,24.42
2023-05-21T09:06:21.614Z,24.62
2023-05-21T09:08:54.117Z,24.77
2023-05-21T09:11:27.172Z,24.86
2023-05-21T09:13:58.386Z,25.00
2023-05-21T09:16:33.612Z,25.10
2023-05-21T09:19:04.650Z,25.40
2023-05-21T09:21:35.481Z,25.43
2023-05-21T09:24:15.343Z,25.45
2023-05-21T09:26:44.365Z,25.62
2023-05-21T09:29:13.400Z,25.66
2023-05-21T09:31:45.382Z,25.64
2023-05-21T09:34:17.110Z,25.52
2023-05-21T09:36:47.326Z,25.42
2023-05-21T09:39:29.958Z,25.57
2023-05-21T09:42:01.038Z,25.62
2023-05-21T09:44:28.521Z,25.81
2023-05-21T09:46:58.917Z,25.93
2023-05-21T09:49:26.844Z,25.87
2023-05-21T09:51:56.249Z,26.03
2023-05-21T09:54:24.476Z,25.90
2023-05-21T09:56:55.367Z,26.08
2023-05-21T09:59:23.137Z,26.11
2023-05-21T10:01:51.951Z,25.92
2023-05-21T10:04:20.063Z,26.04
2023-05-21T10:06:48.184Z,26.10
2023-05-21T10:09:18.966Z,26.03
2023-05-21T10:11:47.306Z,26.14
2023-05-21T10:14:20.226Z,26.32
2023-05-21T10:16:48.549Z,26.25
2023-05-21T10:19:16.491Z,26.42
2023-05-21T10:21:45.068Z,26.68
2023-05-21T10:24:13.399Z,26.67
2023-05-21T10:26:41.690Z,26.69
2023-05-21T10:29:09.235Z,26.64
2023-05-21T10:31:38.892Z,26.72
2023-05-21T10:34:06.502Z,26.77
2023-05-21T10:36:34.523Z,26.94
2023-05-21T10:39:02.914Z,27.12
2023-05-21T10:41:35.941Z,27.46
2023-05-21T10:44:23.698Z,27.78
2023-05-21T10:46:51.229Z,27.28
2023-05-21T10:49:37.440Z,27.07
2023-05-21T10:52:24.356Z,26.68
2023-05-21T10:54:58.216Z,26.57
2023-05-21T10:57:31.510Z,26.48
2023-05-21T10:59:59.283Z,26.55
2023-05-21T11:02:27.590Z,26.98
2023-05-21T11:04:58.959Z,26.96
2023-05-21T11:08:02.569Z,27.09
2023-05-21T11:10:40.879Z,26.83
2023-05-21T11:13:19.969Z,27.02
2023-05-21T11:16:02.889Z,27.16
2023-05-21T11:18:38.113Z,27.40
2023-05-21T11:21:13.727Z,27.35
2023-05-21T11:24:04.339Z,27.43
2023-05-21T11:26:50.521Z,27.44
2023-05-21T11:29:18.346Z,27.50
2023-05-21T11:31:49.160Z,27.29
2023-05-21T11:34:21.914Z,27.33
2023-05-21T11:36:50.212Z,27.37
2023-05-21T11:39:22.204Z,27.31
2023-05-21T11:42:03.135Z,27.41
2023-05-21T11:44:42.322Z,27.28
2023-05-21T11:47:12.438Z,27.24
2023-05-21T11:49:40.054Z,27.37
2023-05-21T11:52:08.078Z,27.36
2023-05-21T11:54:40.507Z,27.21
2023-05-21T11:57:08.380Z,27.12
2023-05-21T11:59:36.696Z,27.17
2023-05-21T12:02:04.338Z,27.10
2023-05-21T12:04:38.832Z,27.18
2023-05-21T12:07:09.682Z,27.37
2023-05-21T12:09:41.179Z,27.55
2023-05-21T12:12:09.150Z,27.54
2023-05-21T12:14:36.972Z,27.38
2023-05-21T12:17:04.883Z,27.08
2023-05-21T12:19:32.974Z,27.41
2023-05-21T12:22:04.258Z,27.42
2023-05-21T12:24:32.253Z,27.67
2023-05-21T12:27:01.124Z,27.78
2023-05-21T12:29:30.070Z,27.82
2023-05-21T12:32:01.430Z,27.68
2023-05-21T12:34:46.246Z,27.76
2023-05-21T12:37:22.000Z,27.66
2023-05-21T12:39:50.361Z,27.73
2023-05-21T12:42:25.146Z,27.95
2023-05-21T12:44:53.212Z,27.84
2023-05-21T12:47:23.275Z,27.66
2023-05-21T12:49:53.493Z,27.69
2023-05-21T12:52:23.219Z,27.81
2023-05-21T12:54:54.408Z,27.50
2023-05-21T12:57:25.405Z,27.60
2023-05-21T12:59:53.877Z,27.69
2023-05-21T13:02:22.681Z,27.74
2023-05-21T13:04:54.392Z,28.06
2023-05-21T13:07:21.858Z,28.32
2023-05-21T13:09:50.150Z,28.13
2023-05-21T13:12:17.466Z,28.09
2023-05-21T13:14:44.940Z,28.01
2023-05-21T13:17:12.756Z,27.81
2023-05-21T13:19:40.093Z,27.86
2023-05-21T13:22:07.783Z,27.61
2023-05-21T13:24:35.063Z,27.59
2023-05-21T13:27:02.480Z,27.74
2023-05-21T13:29:29.851Z,27.68
2023-05-21T13:31:57.265Z,27.64
2023-05-21T13:34:25.810Z,27.90
2023-05-21T13:36:53.220Z,27.96
2023-05-21T13:39:26.831Z,27.86
2023-05-21T13:41:54.204Z,27.89
2023-05-21T13:44:21.665Z,27.97
2023-05-21T13:46:49.126Z,28.01
2023-05-21T13:49:16.617Z,27.84
2023-05-21T13:51:44.023Z,27.91
2023-05-21T13:54:11.420Z,27.86
2023-05-21T13:56:38.953Z,27.44
2023-05-21T13:59:06.361Z,27.53
2023-05-21T14:01:33.986Z,27.65
2023-05-21T14:04:04.353Z,27.56
2023-05-21T14:06:32.205Z,27.57
2023-05-21T14:09:00.487Z,27.69
2023-05-21T14:11:28.452Z,27.69
2023-05-21T14:13:56.256Z,27.63
2023-05-21T14:16:26.506Z,27.87
2023-05-21T14:18:54.828Z,27.79
2023-05-21T14:21:22.553Z,27.90
2023-05-21T14:23:50.249Z,27.80
2023-05-21T14:26:18.040Z,27.65
2023-05-21T14:28:46.319Z,27.44
2023-05-21T14:31:15.021Z,27.61
2023-05-21T14:33:42.444Z,27.44
2023-05-21T14:36:09.919Z,27.69
2023-05-21T14:38:37.490Z,27.95
2023-05-21T14:41:04.874Z,28.04
2023-05-21T14:43:32.276Z,27.86
2023-05-21T14:45:59.834Z,27.90
2023-05-21T14:48:27.226Z,28.15
2023-05-21T14:50:54.924Z,28.28
2023-05-21T14:53:22.396Z,28.38
2023-05-21T14:55:49.676Z,28.36
2023-05-21T14:58:17.522Z,27.78
2023-05-21T15:00:44.871Z,27.77
2023-05-21T15:03:13.173Z,27.93
2023-05-21T15:05:40.894Z,27.84
2023-05-21T15:08:09.786Z,27.74
2023-05-21T15:10:37.397Z,27.70
2023-05-21T15:13:05.064Z,27.46
2023-05-21T15:15:32.371Z,27.45
2023-05-21T15:17:59.898Z,27.47
2023-05-21T15:20:27.243Z,27.46
2023-05-21T15:23:05.016Z,27.42
2023-05-21T15:25:42.262Z,27.38
2023-05-21T15:28:09.582Z,27.23
2023-05-21T15:30:40.060Z,27.14
2023-05-21T15:33:08.937Z,27.08
2023-05-21T15:35:36.925Z,27.18
2023-05-21T15:38:04.612Z,27.16
2023-05-21T15:40:32.382Z,27.25
2023-05-21T15:42:59.999Z,27.34
2023-05-21T15:45:27.500Z,27.27
2023-05-21T15:47:55.041Z,27.32
2023-05-21T15:50:22.571Z,27.44
2023-05-21T15:52:51.648Z,27.24
2023-05-21T15:55:21.076Z,27.16
2023-05-21T15:57:49.006Z,27.16
2023-05-21T16:00:16.759Z,27.04
2023-05-21T16:02:44.315Z,26.90
2023-05-21T16:05:15.074Z,26.84
2023-05-21T16:07:42.724Z,26.76
2023-05-21T16:10:10.721Z,26.80
2023-05-21T16:12:49.000Z,26.94
2023-05-21T16:15:17.165Z,26.95
2023-05-21T16:17:45.169Z,26.97
2023-05-21T16:20:13.117Z,26.95
2023-05-21T16:22:40.861Z,26.72
2023-05-21T16:25:08.857Z,26.53
2023-05-21T16:27:37.179Z,26.60
2023-05-21T16:30:05.926Z,26.48
2023-05-21T16:32:33.645Z,26.47
2023-05-21T16:35:02.112Z,26.43
2023-05-21T16:37:30.415Z,26.47
2023-05-21T16:39:58.745Z,26.36
2023-05-21T16:42:27.216Z,26.53
2023-05-21T16:44:56.925Z,26.51
2023-05-21T16:47:25.919Z,26.22
2023-05-21T16:49:55.866Z,26.22
2023-05-21T16:52:24.021Z,25.92
2023-05-21T16:54:52.224Z,25.94
2023-05-21T16:57:20.218Z,25.99
2023-05-21T16:59:48.447Z,26.01
2023-05-21T17:02:16.544Z,25.87
2023-05-21T17:04:44.292Z,25.94
2023-05-21T17:07:12.614Z,25.77
2023-05-21T17:09:40.657Z,25.42
2023-05-21T17:12:08.647Z,25.35
2023-05-21T17:14:37.655Z,25.34
2023-05-21T17:17:07.477Z,25.21
2023-05-21T17:19:35.675Z,25.02
2023-05-21T17:22:04.185Z,25.21
2023-05-21T17:24:32.184Z,25.09
2023-05-21T17:27:00.536Z,25.05
2023-05-21T17:29:28.354Z,24.86
2023-05-21T17:31:56.416Z,24.73
2023-05-21T17:34:29.657Z,24.68
2023-05-21T17:36:59.088Z,24.76
2023-05-21T17:39:27.101Z,24.63
2023-05-21T17:41:56.222Z,24.57
2023-05-21T17:44:23.994Z,24.39
2023-05-21T17:46:52.352Z,23.97
2023-05-21T17:49:20.646Z,24.05
2023-05-21T17:51:48.538Z,23.79
2023-05-21T17:54:16.472Z,23.40
2023-05-21T17:56:46.455Z,23.40
2023-05-21T17:59:15.593Z,23.35
2023-05-21T18:01:43.177Z,23.12
2023-05-21T18:04:12.433Z,22.92
2023-05-21T18:06:40.175Z,22.78
2023-05-21T18:09:08.151Z,22.60
2023-05-21T18:11:35.716Z,22.36
2023-05-21T18:14:04.194Z,22.16
2023-05-21T18:16:31.834Z,22.04
2023-05-21T18:19:02.158Z,21.90
2023-05-21T18:21:29.693Z,21.86
2023-05-21T18:23:57.173Z,21.75
2023-05-21T18:26:25.147Z,21.66
2023-05-21T18:28:52.701Z,21.57
2023-05-21T18:31:20.353Z,21.31
2023-05-21T18:33:47.901Z,21.19
2023-05-21T18:36:15.417Z,21.08
2023-05-21T18:38:43.337Z,20.98
2023-05-21T18:41:10.881Z,20.95
2023-05-21T18:43:38.247Z,20.93
2023-05-21T18:46:05.839Z,20.85
2023-05-21T18:48:33.523Z,20.69
2023-05-21T18:51:01.390Z,20.60
2023-05-21T18:53:28.897Z,20.52
2023-05-21T18:55:56.470Z,20.34
2023-05-21T18:58:23.914Z,20.23
2023-05-21T19:00:51.423Z,20.06
2023-05-21T19:03:18.955Z,20.01
2023-05-21T19:05:46.820Z,19.94
2023-05-21T19:08:14.727Z,19.88
2023-05-21T19:10:42.232Z,19.83
2023-05-21T19:17:37.203Z,19.71
2023-05-21T19:19:00.326Z,19.73
2023-05-21T19:21:28.849Z,19.67
2023-05-21T19:23:56.516Z,19.64
2023-05-21T19:26:25.291Z,19.57
2023-05-21T19:28:54.679Z,19.49
2023-05-21T19:31:23.358Z,19.37
2023-05-21T19:33:52.341Z,19.32
2023-05-21T19:36:21.287Z,19.33
2023-05-21T19:38:50.249Z,19.24
2023-05-21T19:41:19.202Z,19.13
2023-05-21T19:43:47.510Z,19.11
2023-05-21T19:46:19.268Z,19.11
2023-05-21T19:48:49.701Z,18.96
2023-05-21T19:51:17.590Z,18.80
2023-05-21T19:53:45.636Z,18.80
2023-05-21T19:56:13.575Z,18.78
2023-05-21T19:58:41.733Z,18.77
2023-05-21T20:01:11.813Z,18.65
2023-05-21T20:03:45.339Z,18.69
2023-05-21T20:06:14.011Z,18.65
2023-05-21T20:08:41.962Z,18.68
2023-05-21T20:11:11.729Z,18.63
2023-05-21T20:13:40.311Z,18.48
2023-05-21T20:16:08.644Z,18.54
2023-05-21T20:18:36.673Z,18.53
2023-05-21T20:21:06.854Z,18.39
2023-05-21T20:23:34.955Z,18.40
2023-05-21T20:26:03.003Z,18.40
2023-05-21T20:28:30.571Z,18.35
2023-05-21T20:30:58.968Z,18.32
2023-05-21T20:33:27.981Z,18.34
2023-05-21T20:35:55.683Z,18.34
2023-05-21T20:38:25.792Z,18.35
2023-05-21T20:40:55.138Z,18.35
2023-05-21T20:43:24.656Z,18.35
2023-05-21T20:45:59.905Z,18.32
2023-05-21T20:48:29.820Z,18.39
2023-05-21T20:51:00.468Z,18.45
2023-05-21T20:53:28.121Z,18.44
2023-05-21T20:55:55.781Z,18.40
2023-05-21T20:58:26.312Z,18.43
2023-05-21T21:00:55.323Z,18.39
2023-05-21T21:03:23.126Z,18.43
2023-05-21T21:05:50.838Z,18.38
2023-05-21T21:08:18.281Z,18.31
2023-05-21T21:10:47.089Z,18.27
2023-05-21T21:13:15.050Z,18.35
2023-05-21T21:15:44.020Z,18.44
2023-05-21T21:18:14.758Z,18.50
2023-05-21T21:20:42.795Z,18.44
2023-05-21T21:23:10.426Z,18.46
2023-05-21T21:25:38.037Z,18.63
2023-05-21T21:28:05.558Z,18.72
2023-05-21T21:30:33.216Z,18.69
2023-05-21T21:33:00.673Z,18.75
2023-05-21T21:35:28.208Z,18.77
2023-05-21T21:37:55.642Z,18.68
2023-05-21T21:40:23.108Z,18.64
2023-05-21T21:42:50.567Z,18.53
2023-05-21T21:45:18.019Z,18.48
2023-05-21T21:47:45.500Z,18.44
2023-05-21T21:50:12.940Z,18.27
2023-05-21T21:52:40.563Z,18.21
2023-05-21T21:55:11.599Z,18.16
2023-05-21T21:57:39.187Z,18.09
2023-05-21T22:00:11.693Z,18.08
2023-05-21T22:02:40.426Z,17.99
2023-05-21T22:05:08.840Z,17.87
2023-05-21T22:07:38.957Z,17.87
2023-05-21T22:10:06.659Z,17.88
2023-05-21T22:12:34.303Z,18.04
2023-05-21T22:15:05.925Z,18.08
2023-05-21T22:17:34.281Z,18.03
2023-05-21T22:20:01.959Z,18.00
2023-05-21T22:22:29.625Z,17.98
2023-05-21T22:24:57.181Z,17.98
2023-05-21T22:27:24.750Z,17.88
2023-05-21T22:29:52.199Z,17.84
2023-05-21T22:32:20.384Z,17.87
2023-05-21T22:34:47.833Z,17.79
2023-05-21T22:37:15.396Z,17.74
2023-05-21T22:39:42.914Z,17.84
2023-05-21T22:42:10.265Z,17.86
2023-05-21T22:44:37.722Z,17.87
2023-05-21T22:47:05.184Z,17.98
2023-05-21T22:49:32.865Z,18.03
2023-05-21T22:52:05.411Z,18.04
2023-05-21T22:54:33.146Z,18.12
2023-05-21T22:57:01.266Z,18.12
2023-05-21T22:59:29.089Z,18.20
2023-05-21T23:01:56.577Z,18.21
2023-05-21T23:04:32.214Z,18.17
2023-05-21T23:07:07.750Z,18.20
2023-05-21T23:09:35.251Z,18.24
2023-05-21T23:12:02.979Z,18.33
2023-05-21T23:14:30.493Z,18.43
2023-05-21T23:17:01.940Z,18.52
2023-05-21T23:19:31.571Z,18.58
2023-05-21T23:22:00.250Z,18.85
2023-05-21T23:24:29.570Z,19.22
2023-05-21T23:27:02.274Z,19.60
2023-05-21T23:29:30.496Z,19.82
2023-05-21T23:31:58.040Z,20.04
2023-05-21T23:34:25.881Z,20.33
2023-05-21T23:36:53.336Z,20.70
2023-05-21T23:39:21.220Z,20.93
2023-05-21T23:41:48.756Z,21.06
2023-05-21T23:44:16.600Z,21.17
2023-05-21T23:46:43.999Z,21.35
2023-05-21T23:49:11.799Z,21.33
2023-05-21T23:51:39.571Z,21.47
2023-05-21T23:54:08.088Z,21.42
2023-05-21T23:56:35.824Z,21.42
2023-05-21T23:59:03.491Z,21.43
